Terminal Aerodrome Forecast
Issued by NWS Wilmington, OH

Current Version | Previous Version | Text Only | Print | Product List | Glossary Off
Versions: 1 2 3 4 5 6 7 8 9 10 11 12 13 14 15 16 17

424
FTUS41 KILN 270532
TAFDAY
TAF
KDAY 270532Z 2706/2806 29005KT P6SM SCT110
     FM271500 31008KT P6SM SCT035
     FM280000 31004KT P6SM FEW050
     FM280300 VRB03KT P6SM FEW250=

USA.gov is the U.S. government's official web portal to all federal, state and local government web resources and services.